Time;durP1;ratioP1;P1;durP2;ratioP2;P2;SDS_P1;SDS_P2;PMS_P1;PMS_P2;Temp;Humidity;BMP_temperature;BMP_pressure;BME280_temperature;BME280_humidity;BME280_pressure;Samples;Min_cycle;Max_cycle;Signal;HPM_P1;HPM_P2
2023/01/16 00:00:29;;;;;;;0.10;0.10;;;4.10;99.90;12.80;163505.00;;;;5013580;28;20197;-76
2023/01/16 00:02:57;;;;;;;0.00;0.00;;;4.10;99.90;12.80;163505.00;;;;5003796;28;20213;-76
2023/01/16 00:05:25;;;;;;;0.10;0.10;;;4.00;99.90;12.80;163505.00;;;;5004843;28;20204;-77
2023/01/16 00:07:53;;;;;;;0.10;0.10;;;4.00;99.90;12.80;163505.00;;;;4992241;28;20759;-77
2023/01/16 00:10:21;;;;;;;0.10;0.10;;;4.00;99.90;12.80;163505.00;;;;4994575;28;20684;-77
2023/01/16 00:12:50;;;;;;;0.10;0.10;;;4.00;99.90;12.80;163505.00;;;;4993067;28;20268;-75
2023/01/16 00:15:18;;;;;;;0.10;0.10;;;3.90;99.90;12.80;163505.00;;;;4985756;28;20193;-77
2023/01/16 00:17:47;;;;;;;0.10;0.10;;;3.90;99.90;12.80;163505.00;;;;4995165;28;20208;-78
2023/01/16 00:20:16;;;;;;;0.10;0.10;;;3.90;99.90;12.80;163505.00;;;;4997977;28;20204;-76
2023/01/16 00:22:44;;;;;;;0.10;0.10;;;3.90;99.90;12.80;163505.00;;;;4978432;28;20244;-78
2023/01/16 00:25:15;;;;;;;0.10;0.10;;;3.90;99.90;12.80;163505.00;;;;4998456;28;20734;-78
2023/01/16 00:27:43;;;;;;;0.10;0.10;;;3.80;99.90;12.80;163505.00;;;;4994474;28;20197;-79
2023/01/16 00:30:13;;;;;;;0.03;0.03;;;3.80;99.90;12.80;163505.00;;;;4995898;28;20205;-79
2023/01/16 00:32:41;;;;;;;0.10;0.10;;;3.80;99.90;12.80;163505.00;;;;5013612;28;20228;-79
2023/01/16 00:35:09;;;;;;;0.10;0.10;;;3.80;99.90;12.80;163505.00;;;;4998478;28;20200;-77
2023/01/16 00:37:37;;;;;;;0.10;0.10;;;3.80;99.90;12.80;163505.00;;;;4995907;28;20228;-78
2023/01/16 00:40:07;;;;;;;0.10;0.10;;;3.80;99.90;12.80;163505.00;;;;4980712;28;20251;-76
2023/01/16 00:42:35;;;;;;;0.10;0.10;;;3.80;99.90;12.80;163505.00;;;;4992724;28;20216;-78
2023/01/16 00:45:04;;;;;;;0.10;0.10;;;3.80;99.90;12.80;163505.00;;;;4980418;28;20253;-78
2023/01/16 00:47:33;;;;;;;0.10;0.10;;;3.80;99.90;12.80;163505.00;;;;4998948;28;20259;-78
2023/01/16 00:50:01;;;;;;;0.10;0.10;;;3.80;99.90;12.80;163505.00;;;;4982305;28;20197;-78
2023/01/16 00:52:30;;;;;;;0.10;0.10;;;3.90;99.90;12.80;163505.00;;;;4998246;28;20224;-78
2023/01/16 00:54:58;;;;;;;0.10;0.10;;;3.90;99.90;12.80;163505.00;;;;4992592;28;20541;-78
2023/01/16 00:57:26;;;;;;;0.10;0.10;;;3.80;99.90;12.80;163505.00;;;;4993677;28;20233;-77
2023/01/16 00:59:54;;;;;;;0.03;0.03;;;3.80;99.90;12.80;163505.00;;;;4962470;28;20197;-77
2023/01/16 01:02:22;;;;;;;0.10;0.10;;;3.80;99.90;12.80;163505.00;;;;4993652;28;20224;-79
2023/01/16 01:04:52;;;;;;;0.10;0.10;;;3.80;99.90;12.80;163505.00;;;;4997607;28;20212;-78
2023/01/16 01:07:20;;;;;;;0.10;0.10;;;3.80;99.90;12.80;163505.00;;;;4989162;28;20267;-78
2023/01/16 01:09:48;;;;;;;0.10;0.10;;;3.80;99.90;12.80;163505.00;;;;4990849;28;20570;-78
2023/01/16 01:12:16;;;;;;;0.10;0.10;;;3.70;99.90;12.80;163505.00;;;;4970064;28;20216;-78
2023/01/16 01:14:44;;;;;;;0.10;0.10;;;3.70;99.90;12.80;163505.00;;;;4960836;28;20252;-78
2023/01/16 01:17:12;;;;;;;0.10;0.10;;;3.70;99.90;12.80;163505.00;;;;4990341;28;20224;-77
2023/01/16 01:19:40;;;;;;;0.10;0.10;;;3.70;99.90;12.80;163505.00;;;;4975543;28;20193;-78
2023/01/16 01:22:09;;;;;;;0.10;0.10;;;3.70;99.90;12.80;163505.00;;;;4970584;28;20243;-77
2023/01/16 01:24:37;;;;;;;0.10;0.10;;;3.70;99.90;12.80;163505.00;;;;4994008;28;20203;-76
2023/01/16 01:27:05;;;;;;;0.10;0.10;;;3.60;99.90;12.80;163505.00;;;;4994421;28;20218;-78
2023/01/16 01:29:33;;;;;;;0.10;0.10;;;3.60;99.90;12.80;163505.00;;;;4995253;28;20192;-77
2023/01/16 01:32:02;;;;;;;0.10;0.10;;;3.60;99.90;12.80;163505.00;;;;4993051;28;21105;-78
2023/01/16 01:34:33;;;;;;;0.10;0.10;;;3.60;99.90;12.80;163505.00;;;;4994691;28;20658;-77
2023/01/16 01:37:01;;;;;;;0.10;0.10;;;3.50;99.90;12.80;163505.00;;;;4995839;28;20697;-77
2023/01/16 01:39:31;;;;;;;0.10;0.10;;;3.50;99.90;12.80;163505.00;;;;4996735;28;20263;-79
2023/01/16 01:44:55;;;;;;;0.10;0.10;;;3.50;99.90;12.80;163505.00;;;;4997078;28;20207;-78
2023/01/16 01:47:29;;;;;;;0.10;0.10;;;3.60;99.90;12.80;163505.00;;;;4993706;28;20204;-79
2023/01/16 01:50:02;;;;;;;0.10;0.10;;;3.60;99.90;12.80;163505.00;;;;4995494;28;20191;-78
2023/01/16 01:52:32;;;;;;;0.10;0.10;;;3.60;99.90;12.80;163505.00;;;;4996549;28;20220;-78
2023/01/16 01:55:08;;;;;;;0.10;0.10;;;3.70;99.90;12.80;163505.00;;;;5001082;28;20200;-77
2023/01/16 01:57:42;;;;;;;0.10;0.10;;;3.60;99.90;12.80;163505.00;;;;4981612;28;20223;-77
2023/01/16 02:00:16;;;;;;;0.10;0.10;;;3.60;99.90;12.80;163505.00;;;;4992723;28;20200;-78
2023/01/16 02:02:52;;;;;;;0.10;0.10;;;3.60;99.90;12.80;163505.00;;;;4995693;28;20675;-78
2023/01/16 02:05:29;;;;;;;0.10;0.10;;;3.60;99.90;12.80;163505.00;;;;4995916;28;20275;-77
2023/01/16 02:07:59;;;;;;;0.10;0.10;;;3.60;99.90;12.80;163505.00;;;;4992708;28;20204;-78
2023/01/16 02:10:37;;;;;;;0.10;0.10;;;3.60;99.90;12.80;163505.00;;;;4998609;28;20211;-77
2023/01/16 02:13:05;;;;;;;0.10;0.10;;;3.60;99.90;12.80;163505.00;;;;4980033;28;20227;-77
2023/01/16 02:15:34;;;;;;;0.10;0.10;;;3.60;99.90;12.80;163505.00;;;;4979604;28;20197;-76
2023/01/16 02:21:03;;;;;;;0.10;0.10;;;3.50;99.90;12.80;163505.00;;;;4989591;28;20236;-79
2023/01/16 02:24:17;;;;;;;0.10;0.10;;;3.50;99.90;12.80;163505.00;;;;4996252;28;20616;-78
2023/01/16 02:27:42;;;;;;;0.10;0.10;;;3.50;99.90;12.80;163505.00;;;;4998218;28;20204;-78
2023/01/16 02:30:33;;;;;;;0.10;0.10;;;3.50;99.90;12.80;163505.00;;;;4997403;28;20220;-77
2023/01/16 02:33:10;;;;;;;0.10;0.10;;;3.50;99.90;12.80;163505.00;;;;5000123;28;20650;-79
2023/01/16 02:36:02;;;;;;;0.10;0.10;;;3.50;99.90;12.80;163505.00;;;;4980899;28;20195;-79
2023/01/16 02:38:44;;;;;;;0.10;0.10;;;3.50;99.90;12.80;163505.00;;;;4997692;28;20247;-79
2023/01/16 02:41:27;;;;;;;0.10;0.10;;;3.50;99.90;12.80;163505.00;;;;4993888;28;20657;-78
2023/01/16 02:44:05;;;;;;;0.10;0.10;;;3.50;99.90;12.80;163505.00;;;;5003154;28;20200;-79
2023/01/16 02:46:37;;;;;;;0.10;0.10;;;3.60;99.90;12.80;163505.00;;;;5000456;28;20195;-78
2023/01/16 02:49:20;;;;;;;0.10;0.10;;;3.60;99.90;12.80;163505.00;;;;5008121;28;20224;-79
2023/01/16 02:51:59;;;;;;;0.10;0.10;;;3.60;99.90;12.80;163505.00;;;;5001852;28;20224;-78
2023/01/16 02:54:36;;;;;;;0.10;0.10;;;3.60;99.90;12.80;163505.00;;;;4999461;28;20262;-77
2023/01/16 02:57:12;;;;;;;0.10;0.10;;;3.60;99.90;12.80;163505.00;;;;4998083;28;20247;-77
2023/01/16 02:59:42;;;;;;;0.10;0.10;;;3.60;99.90;12.80;163505.00;;;;4998211;28;20426;-77
2023/01/16 03:02:10;;;;;;;0.10;0.10;;;3.50;99.90;12.80;163505.00;;;;4989837;28;20689;-77
2023/01/16 03:04:48;;;;;;;0.10;0.10;;;3.50;99.90;12.80;163505.00;;;;5005122;28;20197;-79
2023/01/16 03:07:53;;;;;;;0.10;0.10;;;3.50;99.90;12.80;163505.00;;;;4978296;28;20440;-79
2023/01/16 03:10:48;;;;;;;0.10;0.10;;;3.50;99.90;12.80;163505.00;;;;4978687;28;20203;-78
2023/01/16 03:13:36;;;;;;;0.10;0.10;;;3.50;99.90;12.80;163505.00;;;;4989109;28;20220;-79
2023/01/16 03:16:26;;;;;;;0.10;0.10;;;3.50;99.90;12.80;163505.00;;;;4997687;28;20200;-78
2023/01/16 03:19:12;;;;;;;0.10;0.10;;;3.50;99.90;12.80;163505.00;;;;4983483;28;20518;-79
2023/01/16 03:21:59;;;;;;;0.10;0.10;;;3.50;99.90;12.80;163505.00;;;;4985880;28;20212;-78
2023/01/16 03:24:44;;;;;;;0.10;0.10;;;3.50;99.90;12.80;163505.00;;;;4997215;28;20256;-78
2023/01/16 03:27:28;;;;;;;0.10;0.10;;;3.40;99.90;12.80;163505.00;;;;4992311;28;20208;-75
2023/01/16 03:30:07;;;;;;;0.10;0.10;;;3.40;99.90;12.80;163505.00;;;;4992347;28;20196;-78
2023/01/16 03:32:41;;;;;;;0.10;0.10;;;3.40;99.90;12.80;163505.00;;;;4977602;28;20224;-76
2023/01/16 03:35:16;;;;;;;0.10;0.10;;;3.40;99.90;12.80;163505.00;;;;4978775;28;20724;-76
2023/01/16 03:37:52;;;;;;;0.10;0.10;;;3.30;99.90;12.80;163505.00;;;;4994778;28;20216;-77
2023/01/16 03:40:27;;;;;;;0.10;0.10;;;3.30;99.90;12.80;163505.00;;;;4997236;28;20204;-78
2023/01/16 03:43:02;;;;;;;0.10;0.10;;;3.30;99.90;12.80;163505.00;;;;4987580;28;20227;-79
2023/01/16 03:45:44;;;;;;;0.10;0.10;;;3.40;99.90;12.80;163505.00;;;;4986993;28;20258;-79
2023/01/16 03:48:21;;;;;;;0.10;0.10;;;3.40;99.90;12.80;163505.00;;;;4997201;28;20215;-78
2023/01/16 03:50:56;;;;;;;0.10;0.10;;;3.40;99.90;12.80;163505.00;;;;4997102;28;20748;-78
2023/01/16 03:53:33;;;;;;;0.10;0.10;;;3.40;99.90;12.80;163505.00;;;;4982295;28;20242;-78
2023/01/16 03:56:11;;;;;;;0.10;0.10;;;3.50;99.90;12.80;163505.00;;;;5000521;28;20231;-78
2023/01/16 03:58:53;;;;;;;0.10;0.10;;;3.50;99.90;12.80;163505.00;;;;5001368;28;20710;-76
2023/01/16 04:01:32;;;;;;;0.10;0.10;;;3.40;99.90;12.80;163505.00;;;;4999532;28;20741;-78
2023/01/16 04:04:07;;;;;;;0.10;0.10;;;3.40;99.90;12.80;163505.00;;;;4997652;28;20220;-76
2023/01/16 04:06:44;;;;;;;0.10;0.10;;;3.40;99.90;12.80;163505.00;;;;4981166;28;20199;-77
2023/01/16 04:09:22;;;;;;;0.10;0.10;;;3.30;99.90;12.80;163505.00;;;;4995297;28;20624;-78
2023/01/16 04:11:52;;;;;;;0.00;0.00;;;3.30;99.90;12.80;163505.00;;;;4998969;28;20223;-78
2023/01/16 04:14:25;;;;;;;0.10;0.10;;;3.30;99.90;12.80;163505.00;;;;4984357;28;20260;-77
2023/01/16 04:16:53;;;;;;;0.10;0.10;;;3.20;99.90;12.80;163505.00;;;;4995659;28;20209;-77
2023/01/16 04:19:23;;;;;;;0.10;0.10;;;3.10;99.90;12.80;163505.00;;;;4996034;28;20228;-78
2023/01/16 04:21:52;;;;;;;0.10;0.10;;;2.90;99.90;12.80;163505.00;;;;4991353;28;20279;-78
2023/01/16 04:24:21;;;;;;;0.10;0.10;;;2.80;99.90;12.80;163505.00;;;;4996669;28;20201;-79
2023/01/16 04:26:51;;;;;;;0.10;0.10;;;2.70;99.90;12.80;163505.00;;;;4978336;28;20207;-77
2023/01/16 04:29:19;;;;;;;0.10;0.10;;;2.70;99.90;12.80;163505.00;;;;4996263;28;20558;-76
2023/01/16 04:31:47;;;;;;;0.10;0.10;;;2.60;99.90;12.80;163505.00;;;;4997681;28;20556;-78
2023/01/16 04:34:15;;;;;;;0.10;0.10;;;2.50;99.90;12.80;163505.00;;;;4999418;28;20197;-79
2023/01/16 04:36:42;;;;;;;0.10;0.10;;;2.50;99.90;12.80;163505.00;;;;4998372;28;20196;-79
2023/01/16 04:39:10;;;;;;;0.10;0.10;;;2.50;99.90;12.80;163505.00;;;;4998374;28;20228;-77
2023/01/16 04:41:40;;;;;;;0.10;0.10;;;2.40;99.90;12.80;163505.00;;;;4997848;28;20224;-78
2023/01/16 04:44:10;;;;;;;0.10;0.10;;;2.50;99.90;12.80;163505.00;;;;4997507;28;20200;-78
2023/01/16 04:46:38;;;;;;;0.10;0.10;;;2.50;99.90;12.80;163505.00;;;;4994518;28;20381;-77
2023/01/16 04:49:07;;;;;;;0.10;0.10;;;2.50;99.90;12.80;163505.00;;;;4995820;28;20301;-77
2023/01/16 04:51:36;;;;;;;0.10;0.10;;;2.50;99.90;12.80;163505.00;;;;4996347;28;20677;-77
2023/01/16 04:54:06;;;;;;;0.10;0.10;;;2.60;99.90;12.80;163505.00;;;;5020224;23;20242;-74
2023/01/16 04:56:35;;;;;;;0.10;0.10;;;2.60;99.90;12.80;163505.00;;;;4993738;28;20668;-76
2023/01/16 04:59:05;;;;;;;0.10;0.10;;;2.70;99.90;12.80;163505.00;;;;4992558;28;20220;-72
2023/01/16 05:01:34;;;;;;;0.10;0.10;;;2.70;99.90;12.80;163505.00;;;;4980305;28;20212;-73
2023/01/16 05:04:03;;;;;;;0.10;0.10;;;2.80;99.90;12.80;163505.00;;;;4993798;28;20215;-73
2023/01/16 05:06:32;;;;;;;0.10;0.10;;;2.80;99.90;12.80;163505.00;;;;4991768;28;20224;-72
2023/01/16 05:09:00;;;;;;;0.10;0.10;;;2.80;99.90;12.80;163505.00;;;;4990639;28;20239;-72
2023/01/16 05:11:28;;;;;;;0.10;0.10;;;2.80;99.90;12.80;163505.00;;;;4993422;28;20251;-74
2023/01/16 05:13:59;;;;;;;0.10;0.10;;;2.90;99.90;12.80;163505.00;;;;4993273;28;20282;-73
2023/01/16 05:16:29;;;;;;;0.10;0.10;;;3.00;99.90;12.80;163505.00;;;;4984068;28;20208;-74
2023/01/16 05:18:57;;;;;;;0.10;0.10;;;3.00;99.90;12.80;163505.00;;;;4987116;28;20303;-73
2023/01/16 05:21:25;;;;;;;0.10;0.10;;;3.00;99.90;12.80;163505.00;;;;4993564;28;20673;-73
2023/01/16 05:23:53;;;;;;;0.10;0.10;;;2.90;99.90;12.80;163505.00;;;;4995976;28;20216;-73
2023/01/16 05:26:21;;;;;;;0.10;0.10;;;2.80;99.90;12.80;163505.00;;;;4991926;28;20200;-72
2023/01/16 05:28:49;;;;;;;0.10;0.10;;;2.70;99.90;12.80;163505.00;;;;4991252;28;20230;-72
2023/01/16 05:31:17;;;;;;;0.10;0.10;;;2.60;99.90;12.80;163505.00;;;;4984583;28;20200;-72
2023/01/16 05:33:47;;;;;;;0.10;0.10;;;2.50;99.90;12.80;163505.00;;;;4991629;28;20692;-71
2023/01/16 05:36:15;;;;;;;0.10;0.10;;;2.50;99.90;12.80;163505.00;;;;4993875;28;20196;-72
2023/01/16 05:38:43;;;;;;;0.10;0.10;;;2.50;99.90;12.80;163505.00;;;;4994896;28;20212;-72
2023/01/16 05:41:11;;;;;;;0.10;0.10;;;2.50;99.90;12.80;163505.00;;;;4995122;28;20192;-71
2023/01/16 05:43:39;;;;;;;0.10;0.10;;;2.50;99.90;12.80;163505.00;;;;4992345;28;20271;-71
2023/01/16 05:46:07;;;;;;;0.10;0.10;;;2.50;99.90;12.80;163505.00;;;;4975282;28;20246;-71
2023/01/16 05:48:36;;;;;;;0.10;0.10;;;2.50;99.90;12.80;163505.00;;;;4999244;28;20204;-71
2023/01/16 05:51:07;;;;;;;0.10;0.10;;;2.50;99.90;12.80;163505.00;;;;5007462;28;20567;-71
2023/01/16 05:53:35;;;;;;;0.10;0.10;;;2.50;99.90;12.80;163505.00;;;;4985590;28;20271;-71
2023/01/16 05:56:08;;;;;;;0.10;0.10;;;2.50;99.90;12.80;163505.00;;;;4994382;28;20204;-71
2023/01/16 05:58:36;;;;;;;0.10;0.10;;;2.50;99.90;12.80;163505.00;;;;4991219;28;20705;-73
2023/01/16 06:01:05;;;;;;;0.10;0.10;;;2.40;99.90;12.80;163505.00;;;;4991527;28;20448;-74
2023/01/16 06:03:33;;;;;;;0.20;0.20;;;2.50;99.90;12.80;163505.00;;;;4991305;28;20216;-72
2023/01/16 06:06:01;;;;;;;0.10;0.10;;;2.50;99.90;12.80;163505.00;;;;4991865;28;20259;-71
2023/01/16 06:08:31;;;;;;;0.10;0.10;;;2.50;99.90;12.80;163505.00;;;;4992509;28;20200;-74
2023/01/16 06:10:59;;;;;;;0.10;0.10;;;2.50;99.90;12.80;163505.00;;;;4991686;28;20192;-74
2023/01/16 06:13:27;;;;;;;0.10;0.10;;;2.50;99.90;12.80;163505.00;;;;4992945;28;20220;-74
2023/01/16 06:15:55;;;;;;;0.10;0.10;;;2.50;99.90;12.80;163505.00;;;;4993146;28;20742;-74
2023/01/16 06:18:23;;;;;;;0.10;0.10;;;2.50;99.90;12.80;163505.00;;;;4993590;28;20258;-74
2023/01/16 06:20:51;;;;;;;0.10;0.10;;;2.50;99.90;12.80;163505.00;;;;4992145;28;20220;-74
2023/01/16 06:23:19;;;;;;;0.10;0.10;;;2.50;99.90;12.80;163505.00;;;;4991927;28;20283;-74
2023/01/16 06:25:50;;;;;;;0.10;0.10;;;2.50;99.90;12.80;163505.00;;;;4992573;28;20669;-74
2023/01/16 06:28:18;;;;;;;0.10;0.10;;;2.60;99.90;12.80;163505.00;;;;4992153;28;20192;-75
2023/01/16 06:30:52;;;;;;;0.10;0.10;;;2.50;99.90;12.80;163505.00;;;;4992750;28;20207;-74
2023/01/16 06:33:20;;;;;;;0.00;0.00;;;2.60;99.90;12.80;163505.00;;;;4992311;28;20624;-73
2023/01/16 06:35:49;;;;;;;0.10;0.10;;;2.60;99.90;12.80;163505.00;;;;4992573;28;20200;-73
2023/01/16 06:38:17;;;;;;;0.10;0.10;;;2.60;99.90;12.80;163505.00;;;;4991932;28;20601;-74
2023/01/16 06:40:45;;;;;;;0.10;0.10;;;2.60;99.90;12.80;163505.00;;;;4991840;28;20220;-72
2023/01/16 06:43:16;;;;;;;0.10;0.10;;;2.60;99.90;12.80;163505.00;;;;4993890;28;20319;-73
2023/01/16 06:45:45;;;;;;;0.10;0.10;;;2.60;99.90;12.80;163505.00;;;;4977235;28;20565;-73
2023/01/16 06:48:13;;;;;;;0.10;0.10;;;2.60;99.90;12.80;163505.00;;;;4994119;28;20527;-73
2023/01/16 06:50:41;;;;;;;0.10;0.10;;;2.60;99.90;12.80;163505.00;;;;4991705;28;20204;-73
2023/01/16 06:53:09;;;;;;;0.10;0.10;;;2.60;99.90;12.80;163505.00;;;;4991663;28;20232;-73
2023/01/16 06:55:37;;;;;;;0.10;0.10;;;2.60;99.90;12.80;163505.00;;;;4992028;28;20184;-73
2023/01/16 06:58:05;;;;;;;0.10;0.10;;;2.70;99.90;12.80;163505.00;;;;4991919;28;20615;-73
2023/01/16 07:00:35;;;;;;;0.10;0.10;;;2.70;99.90;12.80;163505.00;;;;4992158;28;20312;-73
2023/01/16 07:03:04;;;;;;;0.10;0.10;;;2.70;99.90;12.80;163505.00;;;;4991938;28;20700;-74
2023/01/16 07:05:32;;;;;;;0.10;0.10;;;2.70;99.90;12.80;163505.00;;;;4992149;28;20228;-73
2023/01/16 07:08:00;;;;;;;0.10;0.10;;;2.70;99.90;12.80;163505.00;;;;4993006;28;20194;-73
2023/01/16 07:10:29;;;;;;;0.10;0.10;;;2.80;99.90;12.80;163505.00;;;;4974827;28;20200;-73
2023/01/16 07:12:56;;;;;;;0.10;0.10;;;2.80;99.90;12.80;163505.00;;;;4992083;28;20216;-73
2023/01/16 07:23:53;;;;;;;0.10;0.10;;;2.80;99.90;12.80;163505.00;;;;4995884;28;20408;-73
2023/01/16 07:26:23;;;;;;;0.10;0.10;;;2.80;99.90;12.80;163505.00;;;;4976436;28;20232;-73
2023/01/16 07:28:54;;;;;;;0.10;0.10;;;2.80;99.90;12.80;163505.00;;;;4987424;28;20185;-73
2023/01/16 07:31:23;;;;;;;0.10;0.10;;;2.80;99.90;12.80;163505.00;;;;4985534;28;20209;-73
2023/01/16 07:33:52;;;;;;;0.10;0.10;;;2.80;99.90;12.80;163505.00;;;;4975583;28;20652;-73
2023/01/16 07:36:20;;;;;;;0.10;0.10;;;2.80;99.90;12.80;163505.00;;;;4993432;28;20193;-74
2023/01/16 07:38:49;;;;;;;0.10;0.10;;;2.90;99.90;12.80;163505.00;;;;4977431;28;20196;-73
2023/01/16 07:41:16;;;;;;;0.10;0.10;;;2.90;99.90;12.80;163505.00;;;;4993321;28;20242;-74
2023/01/16 07:43:44;;;;;;;0.00;0.00;;;2.90;99.90;12.80;163505.00;;;;4994825;28;20302;-73
2023/01/16 07:46:12;;;;;;;0.10;0.10;;;2.80;99.90;12.80;163505.00;;;;4991403;28;20193;-73
2023/01/16 07:48:40;;;;;;;0.10;0.10;;;2.80;99.90;12.80;163505.00;;;;4991232;28;20685;-74
2023/01/16 07:51:10;;;;;;;0.10;0.10;;;2.80;99.90;12.80;163505.00;;;;4995485;28;20255;-73
2023/01/16 07:53:38;;;;;;;0.10;0.10;;;2.80;99.90;12.80;163505.00;;;;4993242;28;20224;-73
2023/01/16 07:56:06;;;;;;;0.10;0.10;;;2.80;99.90;12.80;163505.00;;;;4995428;28;20189;-73
2023/01/16 07:58:35;;;;;;;0.10;0.10;;;2.80;99.90;12.80;163505.00;;;;4994857;28;20197;-74
2023/01/16 08:01:05;;;;;;;0.10;0.10;;;2.70;99.90;12.80;163505.00;;;;4994981;28;20241;-73
2023/01/16 08:03:33;;;;;;;0.10;0.10;;;2.70;99.90;12.80;163505.00;;;;4977562;28;20228;-73
2023/01/16 08:06:02;;;;;;;0.00;0.00;;;2.70;99.90;12.80;163505.00;;;;4994980;28;20693;-73
2023/01/16 08:08:33;;;;;;;0.10;0.10;;;2.70;99.90;12.80;163505.00;;;;4977523;28;20617;-73
2023/01/16 08:11:35;;;;;;;0.10;0.10;;;2.70;99.90;12.80;163505.00;;;;4994931;28;20209;-74
2023/01/16 08:13:51;;;;;;;0.10;0.10;;;2.70;99.90;12.80;163505.00;;;;4994738;28;20359;-73
2023/01/16 08:16:19;;;;;;;0.10;0.10;;;2.70;99.90;12.80;163505.00;;;;4994230;28;20267;-73
2023/01/16 08:18:48;;;;;;;0.10;0.10;;;2.70;99.90;12.80;163505.00;;;;4995747;28;20673;-73
2023/01/16 08:21:17;;;;;;;0.10;0.10;;;2.70;99.90;12.80;163505.00;;;;5014449;28;20235;-73
2023/01/16 08:23:47;;;;;;;0.10;0.10;;;2.70;99.90;12.80;163505.00;;;;5006836;28;20677;-73
2023/01/16 08:26:16;;;;;;;0.10;0.10;;;2.70;99.90;12.80;163505.00;;;;4994792;28;20255;-73
2023/01/16 08:28:44;;;;;;;0.10;0.10;;;2.70;99.90;12.80;163505.00;;;;4994397;28;20193;-73
2023/01/16 08:31:15;;;;;;;0.10;0.10;;;2.70;99.90;12.80;163505.00;;;;4995224;28;20200;-73
2023/01/16 08:33:45;;;;;;;0.10;0.10;;;2.80;99.90;12.80;163505.00;;;;4994157;28;20291;-73
2023/01/16 08:36:15;;;;;;;0.10;0.10;;;2.80;99.90;12.80;163505.00;;;;4994898;28;20204;-73
2023/01/16 08:38:43;;;;;;;0.10;0.10;;;2.90;99.90;12.80;163505.00;;;;4993840;28;20212;-73
2023/01/16 08:52:13;;;;;;;0.10;0.10;;;3.00;99.90;12.80;163505.00;;;;4976688;28;20220;-73
2023/01/16 08:54:43;;;;;;;0.10;0.10;;;3.10;99.90;12.80;163505.00;;;;4993782;28;20714;-73
2023/01/16 08:57:12;;;;;;;0.10;0.10;;;3.10;99.90;12.80;163505.00;;;;4993220;28;20482;-73
2023/01/16 08:59:40;;;;;;;0.10;0.10;;;3.10;99.90;12.80;163505.00;;;;4994299;28;20188;-73
2023/01/16 09:02:11;;;;;;;0.10;0.10;;;3.10;99.90;12.80;163505.00;;;;4994244;28;20228;-73
2023/01/16 09:04:39;;;;;;;0.10;0.10;;;3.20;99.90;12.80;163505.00;;;;4995430;28;20283;-73
2023/01/16 09:07:08;;;;;;;0.10;0.10;;;3.20;99.90;12.80;163505.00;;;;5013659;28;20199;-73
2023/01/16 09:09:36;;;;;;;0.10;0.10;;;3.20;99.90;12.80;163505.00;;;;5013890;28;20222;-74
2023/01/16 09:14:51;;;;;;;0.10;0.10;;;3.30;99.90;12.80;163505.00;;;;5013170;28;20616;-73
2023/01/16 09:17:19;;;;;;;0.10;0.10;;;3.30;99.90;12.80;163505.00;;;;5013389;28;20206;-73
2023/01/16 09:19:47;;;;;;;0.10;0.10;;;3.40;99.90;12.80;163505.00;;;;5013129;28;20192;-73
2023/01/16 09:22:15;;;;;;;0.10;0.10;;;3.50;99.90;12.80;163505.00;;;;5013502;28;20718;-73
2023/01/16 09:24:44;;;;;;;0.10;0.10;;;3.50;99.90;12.80;163505.00;;;;4996013;28;20661;-73
2023/01/16 09:27:13;;;;;;;0.10;0.10;;;3.50;99.90;12.80;163505.00;;;;5016665;28;20196;-75
2023/01/16 09:29:42;;;;;;;0.10;0.10;;;3.60;99.90;12.80;163505.00;;;;5021275;28;20250;-73
2023/01/16 09:32:11;;;;;;;0.10;0.10;;;3.70;99.90;12.80;163505.00;;;;5020802;28;20199;-73
2023/01/16 09:34:41;;;;;;;0.10;0.10;;;3.70;99.90;12.80;163505.00;;;;5015263;28;20668;-73
2023/01/16 09:37:10;;;;;;;0.10;0.10;;;3.80;99.90;12.80;163505.00;;;;5014396;28;20219;-73
2023/01/16 09:39:38;;;;;;;0.10;0.10;;;3.90;99.90;12.80;163505.00;;;;5013547;28;20188;-73
2023/01/16 09:45:30;;;;;;;0.10;0.10;;;4.20;99.90;12.80;163505.00;;;;5012607;28;20254;-73
2023/01/16 09:48:05;;;;;;;0.10;0.10;;;4.30;99.90;12.80;163505.00;;;;5012595;28;20718;-73
2023/01/16 09:50:40;;;;;;;0.10;0.10;;;4.30;99.90;12.80;163505.00;;;;5012673;28;20191;-72
2023/01/16 09:59:03;;;;;;;0.10;0.10;;;4.40;99.90;12.80;163505.00;;;;5012266;28;20222;-73
2023/01/16 10:01:41;;;;;;;0.10;0.10;;;4.40;99.90;12.80;163505.00;;;;5012863;28;20657;-73
2023/01/16 10:04:19;;;;;;;0.10;0.10;;;4.40;99.90;12.80;163505.00;;;;5012408;28;20730;-73
2023/01/16 10:07:07;;;;;;;0.10;0.10;;;4.50;99.90;12.80;163505.00;;;;4997186;28;20192;-73
2023/01/16 10:09:47;;;;;;;0.10;0.10;;;4.50;99.90;12.80;163505.00;;;;4993039;28;20197;-73
2023/01/16 10:12:15;;;;;;;0.10;0.10;;;4.60;99.90;12.80;163505.00;;;;4993480;28;20216;-73
2023/01/16 10:15:04;;;;;;;0.10;0.10;;;4.70;99.90;12.80;163505.00;;;;4992592;28;20245;-73
2023/01/16 10:17:48;;;;;;;0.10;0.10;;;4.80;99.90;12.80;163505.00;;;;4992945;28;20343;-73
2023/01/16 10:20:42;;;;;;;0.10;0.10;;;4.70;99.90;12.80;163505.00;;;;4993084;28;20188;-73
2023/01/16 10:23:32;;;;;;;0.10;0.10;;;4.80;99.90;12.80;163505.00;;;;4992678;28;20247;-73
2023/01/16 10:26:08;;;;;;;0.10;0.10;;;4.90;99.90;12.80;163505.00;;;;4992868;28;20196;-73
2023/01/16 10:29:04;;;;;;;0.10;0.10;;;5.00;99.90;12.80;163505.00;;;;4991935;28;20609;-73
2023/01/16 10:31:41;;;;;;;0.10;0.10;;;5.10;99.90;12.80;163505.00;;;;4996231;28;20209;-73
2023/01/16 10:34:16;;;;;;;0.10;0.10;;;5.10;99.90;12.80;163505.00;;;;5000147;28;20224;-73
2023/01/16 10:36:52;;;;;;;0.10;0.10;;;5.10;99.90;12.80;163505.00;;;;4998218;28;20200;-73
2023/01/16 10:39:22;;;;;;;0.10;0.10;;;5.20;99.90;12.80;163505.00;;;;4974432;28;20612;-74
2023/01/16 10:50:26;;;;;;;0.10;0.10;;;5.40;99.90;12.80;163505.00;;;;4992599;28;20731;-73
2023/01/16 10:53:09;;;;;;;0.10;0.10;;;5.40;99.90;12.80;163505.00;;;;5016588;23;20387;-75
2023/01/16 10:55:42;;;;;;;0.10;0.10;;;5.40;99.90;12.80;163505.00;;;;4993976;28;20209;-75
2023/01/16 10:58:25;;;;;;;0.10;0.10;;;5.40;99.90;12.80;163505.00;;;;4994321;28;20197;-74
2023/01/16 11:00:59;;;;;;;0.10;0.10;;;5.50;99.90;12.80;163505.00;;;;4990650;28;20600;-75
2023/01/16 11:03:35;;;;;;;0.10;0.10;;;5.50;99.90;12.80;163505.00;;;;4973361;28;20422;-75
2023/01/16 11:06:15;;;;;;;0.10;0.10;;;5.60;99.90;12.80;163505.00;;;;4973370;28;20672;-75
2023/01/16 11:08:49;;;;;;;0.10;0.10;;;5.70;99.90;12.80;163505.00;;;;4972921;28;20211;-75
2023/01/16 11:20:14;;;;;;;0.10;0.10;;;5.90;99.90;12.80;163505.00;;;;4972679;28;20252;-75
2023/01/16 11:22:48;;;;;;;0.10;0.10;;;5.70;99.90;12.80;163505.00;;;;4972485;28;20228;-75
2023/01/16 11:25:20;;;;;;;0.10;0.10;;;5.80;99.90;12.80;163505.00;;;;4972077;28;20631;-75
2023/01/16 11:27:51;;;;;;;0.10;0.10;;;6.00;99.90;12.80;163505.00;;;;4972636;28;20197;-75
2023/01/16 11:30:27;;;;;;;0.10;0.10;;;6.10;99.90;12.80;163505.00;;;;4972661;28;20227;-75
2023/01/16 11:32:58;;;;;;;0.10;0.10;;;6.00;99.90;12.80;163505.00;;;;4972896;28;20278;-75
2023/01/16 11:35:34;;;;;;;0.10;0.10;;;6.20;99.90;12.80;163505.00;;;;4988054;28;20209;-75
2023/01/16 11:38:06;;;;;;;0.10;0.10;;;6.20;99.90;12.80;163505.00;;;;4971756;28;20203;-74
2023/01/16 11:40:45;;;;;;;0.10;0.10;;;6.30;99.90;12.80;163505.00;;;;4971933;28;20186;-75
2023/01/16 11:46:38;;;;;;;0.10;0.10;;;6.40;99.90;12.80;163505.00;;;;4950544;29;20201;-74
2023/01/16 11:49:18;;;;;;;0.10;0.10;;;6.50;99.90;12.80;163505.00;;;;4950167;29;20289;-74
2023/01/16 11:51:54;;;;;;;0.10;0.10;;;6.60;99.90;12.80;163505.00;;;;4964225;28;20224;-74
2023/01/16 11:54:29;;;;;;;0.10;0.10;;;6.60;99.90;12.80;163505.00;;;;4971953;28;20548;-75
2023/01/16 11:57:26;;;;;;;0.10;0.10;;;6.70;99.90;12.80;163505.00;;;;4972030;28;20197;-75
2023/01/16 12:00:23;;;;;;;0.10;0.10;;;6.80;99.90;12.80;163505.00;;;;4954823;28;20196;-75
2023/01/16 12:03:21;;;;;;;0.10;0.10;;;7.00;99.90;12.80;163505.00;;;;4956991;28;20271;-74
2023/01/16 12:06:04;;;;;;;0.10;0.10;;;7.60;99.90;12.80;163505.00;;;;4971860;28;20197;-74
2023/01/16 12:08:54;;;;;;;0.10;0.10;;;8.50;99.90;12.80;163505.00;;;;4972581;28;20610;-75
2023/01/16 12:11:38;;;;;;;0.10;0.10;;;8.70;99.90;12.80;163505.00;;;;4975161;28;20201;-75
2023/01/16 12:14:17;;;;;;;0.10;0.10;;;8.90;99.90;12.80;163505.00;;;;4975279;28;20213;-74
2023/01/16 12:17:09;;;;;;;0.10;0.10;;;9.00;99.90;12.80;163505.00;;;;4974937;28;20196;-74